createdAt,value
2019-05-07T00:00:33.899Z,11.23
2019-05-07T00:03:06.137Z,11.15
2019-05-07T00:05:37.756Z,11.24
2019-05-07T00:08:09.407Z,11.16
2019-05-07T00:10:42.519Z,11.13
2019-05-07T00:13:14.275Z,11.10
2019-05-07T00:15:45.778Z,11.04
2019-05-07T00:18:17.872Z,11.04
2019-05-07T00:20:49.698Z,11.11
2019-05-07T00:23:23.186Z,11.11
2019-05-07T00:25:55.151Z,11.15
2019-05-07T00:28:27.884Z,11.20
2019-05-07T00:31:00.012Z,11.18
2019-05-07T00:33:33.883Z,11.22
2019-05-07T00:36:16.308Z,11.22
2019-05-07T00:38:52.096Z,11.22
2019-05-07T00:41:36.260Z,11.20
2019-05-07T00:44:10.031Z,11.17
2019-05-07T00:46:42.701Z,11.23
2019-05-07T00:49:14.534Z,11.23
2019-05-07T00:51:46.173Z,11.18
2019-05-07T00:54:18.185Z,11.22
2019-05-07T00:56:52.241Z,11.08
2019-05-07T00:59:29.605Z,10.95
2019-05-07T01:02:02.243Z,10.81
2019-05-07T01:04:35.321Z,10.75
2019-05-07T01:07:07.193Z,10.75
2019-05-07T01:09:38.793Z,10.63
2019-05-07T01:12:12.543Z,10.49
2019-05-07T01:14:44.328Z,10.49
2019-05-07T01:17:16.050Z,10.56
2019-05-07T01:19:48.990Z,10.46
2019-05-07T01:22:22.187Z,10.41
2019-05-07T01:24:54.780Z,10.41
2019-05-07T01:27:26.700Z,10.10
2019-05-07T01:29:58.440Z,10.10
2019-05-07T01:32:36.327Z,10.06
2019-05-07T01:35:15.099Z,10.06
2019-05-07T01:37:46.703Z,9.98
2019-05-07T01:40:18.275Z,9.98
2019-05-07T01:42:49.809Z,9.87
2019-05-07T01:45:22.445Z,9.93
2019-05-07T01:47:54.782Z,9.82
2019-05-07T01:50:27.543Z,9.69
2019-05-07T01:52:59.151Z,9.63
2019-05-07T01:55:31.898Z,9.62
2019-05-07T01:58:04.812Z,9.64
2019-05-07T02:00:36.446Z,9.59
2019-05-07T02:03:19.850Z,9.53
2019-05-07T02:05:58.891Z,9.57
2019-05-07T02:08:55.313Z,9.53
2019-05-07T02:11:35.141Z,9.56
2019-05-07T02:14:06.801Z,9.57
2019-05-07T02:16:41.761Z,9.46
2019-05-07T02:19:13.975Z,9.45
2019-05-07T02:21:45.811Z,9.45
2019-05-07T02:24:17.883Z,9.38
2019-05-07T02:26:52.100Z,9.34
2019-05-07T02:29:23.745Z,9.27
2019-05-07T02:31:55.714Z,9.31
2019-05-07T02:34:27.381Z,9.35
2019-05-07T02:36:59.032Z,9.34
2019-05-07T02:39:38.333Z,9.38
2019-05-07T02:42:13.143Z,9.36
2019-05-07T02:45:05.475Z,9.35
2019-05-07T02:47:37.439Z,9.35
2019-05-07T02:50:18.886Z,9.38
2019-05-07T02:53:05.527Z,9.38
2019-05-07T02:55:43.485Z,9.45
2019-05-07T02:58:14.361Z,9.37
2019-05-07T03:00:46.416Z,9.37
2019-05-07T03:03:18.082Z,9.25
2019-05-07T03:05:49.640Z,9.20
2019-05-07T03:08:27.043Z,9.22
2019-05-07T03:10:55.197Z,9.21
2019-05-07T03:13:26.944Z,9.09
2019-05-07T03:15:58.728Z,9.03
2019-05-07T03:18:33.407Z,9.04
2019-05-07T03:21:13.452Z,8.95
2019-05-07T03:24:08.701Z,8.93
2019-05-07T03:26:45.035Z,8.80
2019-05-07T03:29:23.646Z,8.74
2019-05-07T03:31:57.796Z,8.64
2019-05-07T03:34:47.426Z,8.59
2019-05-07T03:37:23.594Z,8.58
2019-05-07T03:39:55.921Z,8.40
2019-05-07T03:42:33.378Z,8.37
2019-05-07T03:45:10.037Z,8.42
2019-05-07T03:47:47.819Z,8.49
2019-05-07T03:50:23.328Z,8.57
2019-05-07T03:52:54.882Z,8.53
2019-05-07T03:55:28.513Z,8.50
2019-05-07T03:58:03.184Z,8.56
2019-05-07T04:00:34.975Z,8.56
2019-05-07T04:03:12.854Z,8.54
2019-05-07T04:05:47.681Z,8.56
2019-05-07T04:08:19.515Z,8.61
2019-05-07T04:10:55.251Z,8.59
2019-05-07T04:13:32.973Z,8.67
2019-05-07T04:16:04.583Z,8.68
2019-05-07T04:18:39.345Z,8.65
2019-05-07T04:21:14.006Z,8.72
2019-05-07T04:23:54.173Z,8.72
2019-05-07T04:26:42.921Z,8.75
2019-05-07T04:29:17.005Z,8.78
2019-05-07T04:31:49.099Z,8.84
2019-05-07T04:34:44.488Z,8.87
2019-05-07T04:37:15.754Z,8.88
2019-05-07T04:39:55.901Z,8.83
2019-05-07T04:42:28.323Z,8.81
2019-05-07T04:45:04.328Z,8.78
2019-05-07T04:47:42.982Z,8.76
2019-05-07T04:50:14.112Z,8.74
2019-05-07T04:52:49.868Z,8.81
2019-05-07T04:55:29.485Z,8.76
2019-05-07T04:58:04.520Z,8.75
2019-05-07T05:00:43.189Z,8.75
2019-05-07T05:03:23.735Z,8.74
2019-05-07T05:05:56.188Z,8.78
2019-05-07T05:08:29.114Z,8.73
2019-05-07T05:11:03.309Z,8.71
2019-05-07T05:13:44.238Z,8.74
2019-05-07T05:16:27.137Z,8.75
2019-05-07T05:19:02.487Z,8.68
2019-05-07T05:21:57.721Z,8.65
2019-05-07T05:24:42.572Z,8.65
2019-05-07T05:27:14.500Z,8.65
2019-05-07T05:29:49.100Z,8.69
2019-05-07T05:32:22.724Z,8.73
2019-05-07T05:34:58.485Z,8.76
2019-05-07T05:37:32.150Z,8.80
2019-05-07T05:40:08.660Z,8.93
2019-05-07T05:42:43.711Z,9.03
2019-05-07T05:45:42.645Z,9.12
2019-05-07T05:48:16.152Z,9.29
2019-05-07T05:51:07.042Z,9.52
2019-05-07T05:53:49.565Z,9.65
2019-05-07T05:56:32.437Z,9.77
2019-05-07T05:59:23.764Z,9.85
2019-05-07T06:02:12.773Z,9.91
2019-05-07T06:05:02.259Z,10.10
2019-05-07T06:07:42.817Z,10.28
2019-05-07T06:10:34.495Z,10.51
2019-05-07T06:13:17.712Z,10.73
2019-05-07T06:15:58.687Z,10.73
2019-05-07T06:18:42.969Z,10.79
2019-05-07T06:21:36.236Z,10.83
2019-05-07T06:24:11.823Z,10.82
2019-05-07T06:26:44.523Z,10.77
2019-05-07T06:29:16.127Z,10.68
2019-05-07T06:32:02.663Z,10.68
2019-05-07T06:34:34.656Z,10.55
2019-05-07T06:37:06.916Z,10.41
2019-05-07T06:40:02.654Z,10.34
2019-05-07T06:43:12.517Z,10.28
2019-05-07T06:45:47.975Z,10.22
2019-05-07T06:48:34.721Z,10.23
2019-05-07T06:50:58.482Z,10.21
2019-05-07T06:53:33.260Z,10.17
2019-05-07T06:56:06.689Z,10.20
2019-05-07T06:59:18.047Z,10.26
2019-05-07T07:02:12.788Z,10.28
2019-05-07T07:04:54.645Z,10.33
2019-05-07T07:07:56.727Z,10.40
2019-05-07T07:10:45.476Z,10.40
2019-05-07T07:13:17.440Z,10.36
2019-05-07T07:15:52.165Z,10.44
2019-05-07T07:18:24.226Z,10.44
2019-05-07T07:20:55.768Z,10.36
2019-05-07T07:23:27.401Z,10.34
2019-05-07T07:25:59.334Z,10.29
2019-05-07T07:28:32.752Z,10.21
2019-05-07T07:31:28.894Z,10.25
2019-05-07T07:34:02.303Z,10.22
2019-05-07T07:36:38.906Z,10.06
2019-05-07T07:39:12.723Z,10.09
2019-05-07T07:41:56.954Z,10.01
2019-05-07T07:44:28.558Z,10.09
2019-05-07T07:47:02.314Z,10.02
2019-05-07T07:49:33.957Z,10.18
2019-05-07T07:52:05.848Z,10.18
2019-05-07T07:54:37.452Z,10.31
2019-05-07T07:57:32.421Z,10.36
2019-05-07T08:00:17.157Z,10.36
2019-05-07T08:02:53.360Z,10.51
2019-05-07T08:05:25.072Z,10.66
2019-05-07T08:07:56.890Z,10.94
2019-05-07T08:10:29.747Z,10.94
2019-05-07T08:13:02.634Z,11.05
2019-05-07T08:15:36.381Z,11.16
2019-05-07T08:18:08.587Z,11.26
2019-05-07T08:20:42.868Z,11.29
2019-05-07T08:23:15.955Z,11.35
2019-05-07T08:25:52.505Z,11.27
2019-05-07T08:28:24.008Z,11.08
2019-05-07T08:31:14.614Z,10.86
2019-05-07T08:33:53.405Z,10.91
2019-05-07T08:36:25.355Z,10.82
2019-05-07T08:38:57.580Z,10.93
2019-05-07T08:41:31.904Z,11.18
2019-05-07T08:44:12.896Z,11.57
2019-05-07T08:47:13.869Z,11.80
2019-05-07T08:49:45.812Z,11.85
2019-05-07T08:52:19.102Z,11.90
2019-05-07T08:54:51.865Z,11.86
2019-05-07T08:57:25.885Z,11.84
2019-05-07T09:00:01.315Z,12.03
2019-05-07T09:02:32.618Z,12.15
2019-05-07T09:05:04.447Z,12.57
2019-05-07T09:07:36.012Z,12.98
2019-05-07T09:10:07.776Z,13.27
2019-05-07T09:12:42.710Z,13.27
2019-05-07T09:15:14.339Z,13.25
2019-05-07T09:17:46.423Z,13.27
2019-05-07T09:20:18.040Z,13.24
2019-05-07T09:22:51.702Z,13.37
2019-05-07T09:25:23.428Z,13.62
2019-05-07T09:27:56.641Z,13.86
2019-05-07T09:30:55.251Z,14.04
2019-05-07T09:33:34.701Z,14.32
2019-05-07T09:36:12.075Z,14.11
2019-05-07T09:38:56.170Z,14.05
2019-05-07T09:41:30.178Z,14.21
2019-05-07T09:44:04.809Z,14.08
2019-05-07T09:46:37.767Z,13.83
2019-05-07T09:49:12.056Z,13.93
2019-05-07T09:51:44.847Z,13.69
2019-05-07T09:54:17.761Z,13.66
2019-05-07T09:56:49.597Z,13.74
2019-05-07T09:59:21.835Z,13.94
2019-05-07T10:01:53.572Z,13.58
2019-05-07T10:04:25.625Z,13.65
2019-05-07T10:06:57.352Z,13.80
2019-05-07T10:09:28.992Z,13.64
2019-05-07T10:12:06.233Z,13.46
2019-05-07T10:14:42.063Z,13.24
2019-05-07T10:17:38.226Z,13.22
2019-05-07T10:20:19.250Z,13.29
2019-05-07T10:22:44.120Z,13.06
2019-05-07T10:25:16.095Z,12.88
2019-05-07T10:27:47.935Z,12.86
2019-05-07T10:30:21.910Z,12.90
2019-05-07T10:32:53.771Z,13.28
2019-05-07T10:35:25.928Z,13.35
2019-05-07T10:37:57.964Z,13.18
2019-05-07T10:40:32.817Z,13.39
2019-05-07T10:43:04.701Z,13.98
2019-05-07T10:46:04.709Z,13.85
2019-05-07T10:48:57.990Z,13.84
2019-05-07T10:51:32.195Z,14.08
2019-05-07T10:54:03.953Z,13.95
2019-05-07T10:56:35.642Z,13.90
2019-05-07T10:59:07.510Z,13.87
2019-05-07T11:01:44.569Z,13.96
2019-05-07T11:04:16.427Z,13.80
2019-05-07T11:06:48.464Z,13.53
2019-05-07T11:09:22.125Z,13.39
2019-05-07T11:11:53.643Z,13.20
2019-05-07T11:14:25.459Z,12.98
2019-05-07T11:17:06.420Z,12.82
2019-05-07T11:19:38.089Z,12.80
2019-05-07T11:22:11.606Z,12.86
2019-05-07T11:24:43.436Z,12.77
2019-05-07T11:27:15.178Z,12.93
2019-05-07T11:29:46.878Z,12.80
2019-05-07T11:32:18.585Z,12.68
2019-05-07T11:34:50.149Z,12.51
2019-05-07T11:37:30.304Z,12.32
2019-05-07T11:40:03.203Z,12.13
2019-05-07T11:43:05.777Z,12.04
2019-05-07T11:45:47.025Z,11.98
2019-05-07T11:48:21.979Z,11.98
2019-05-07T11:51:04.944Z,11.98
2019-05-07T11:53:37.146Z,11.77
2019-05-07T11:56:08.916Z,11.77
2019-05-07T11:58:40.582Z,11.60
2019-05-07T12:01:17.940Z,11.53
2019-05-07T12:03:49.667Z,11.44
2019-05-07T12:06:21.708Z,11.42
2019-05-07T12:08:54.231Z,11.52
2019-05-07T12:11:28.955Z,11.53
2019-05-07T12:14:02.057Z,11.41
2019-05-07T12:16:34.100Z,11.35
2019-05-07T12:19:06.188Z,11.27
2019-05-07T12:21:37.895Z,11.12
2019-05-07T12:24:09.847Z,11.12
2019-05-07T12:26:42.702Z,11.07
2019-05-07T12:29:14.805Z,11.09
2019-05-07T12:31:58.459Z,10.97
2019-05-07T12:34:34.221Z,11.09
2019-05-07T12:37:05.871Z,11.20
2019-05-07T12:39:37.573Z,11.15
2019-05-07T12:42:12.251Z,11.20
2019-05-07T12:44:44.512Z,11.20
2019-05-07T12:47:16.266Z,11.23
2019-05-07T12:49:47.987Z,11.18
2019-05-07T12:52:34.470Z,11.18
2019-05-07T12:55:25.235Z,11.19
2019-05-07T12:57:58.369Z,11.16
2019-05-07T13:01:00.987Z,11.22
2019-05-07T13:03:42.648Z,11.23
2019-05-07T13:06:13.862Z,11.23
2019-05-07T13:08:46.219Z,11.21
2019-05-07T13:11:17.901Z,11.27
2019-05-07T13:13:49.726Z,11.11
2019-05-07T13:16:22.054Z,11.13
2019-05-07T13:18:53.881Z,11.04
2019-05-07T13:21:25.477Z,11.13
2019-05-07T13:23:58.189Z,11.21
2019-05-07T13:26:32.219Z,11.11
2019-05-07T13:29:04.105Z,11.18
2019-05-07T13:31:36.675Z,11.07
2019-05-07T13:34:08.457Z,11.17
2019-05-07T13:36:44.059Z,11.17
2019-05-07T13:39:46.723Z,11.19
2019-05-07T13:42:35.684Z,11.05
2019-05-07T13:45:19.912Z,11.05
2019-05-07T13:47:58.044Z,11.12
2019-05-07T13:50:32.445Z,11.12
2019-05-07T13:53:04.030Z,11.12
2019-05-07T13:55:36.425Z,11.08
2019-05-07T13:58:08.385Z,11.07
2019-05-07T14:00:52.712Z,11.01
2019-05-07T14:03:24.413Z,11.10
2019-05-07T14:05:56.596Z,11.10
2019-05-07T14:08:32.054Z,11.07
2019-05-07T14:11:04.080Z,11.15
2019-05-07T14:13:36.225Z,11.18
2019-05-07T14:16:08.918Z,11.28
2019-05-07T14:18:41.349Z,11.23
2019-05-07T14:21:13.725Z,11.25
2019-05-07T14:23:45.523Z,11.14
2019-05-07T14:26:17.306Z,11.14
2019-05-07T14:28:48.926Z,11.13
2019-05-07T14:31:20.877Z,11.05
2019-05-07T14:33:57.994Z,11.09
2019-05-07T14:36:38.180Z,11.09
2019-05-07T14:39:11.518Z,11.07
2019-05-07T14:41:43.102Z,11.07
2019-05-07T14:44:16.204Z,11.07
2019-05-07T14:46:54.077Z,11.00
2019-05-07T14:49:32.098Z,10.97
2019-05-07T14:52:04.640Z,10.97
2019-05-07T14:54:38.053Z,10.96
2019-05-07T14:57:11.071Z,11.00
2019-05-07T14:59:43.061Z,11.03
2019-05-07T15:02:14.898Z,11.02
2019-05-07T15:04:46.709Z,11.00
2019-05-07T15:07:18.966Z,11.06
2019-05-07T15:09:51.874Z,11.07
2019-05-07T15:12:23.916Z,11.10
2019-05-07T15:14:56.506Z,11.10
2019-05-07T15:17:44.558Z,11.06
2019-05-07T15:20:17.816Z,11.10
2019-05-07T15:23:02.669Z,11.09
2019-05-07T15:25:34.793Z,11.14
2019-05-07T15:28:07.255Z,11.15
2019-05-07T15:30:56.806Z,11.12
2019-05-07T15:33:28.347Z,11.11
2019-05-07T15:36:00.082Z,11.11
2019-05-07T15:38:32.727Z,11.14
2019-05-07T15:41:05.030Z,11.15
2019-05-07T15:43:36.760Z,11.07
2019-05-07T15:46:09.399Z,11.05
2019-05-07T15:48:42.000Z,10.94
2019-05-07T15:51:16.676Z,11.01
2019-05-07T15:53:55.768Z,11.04
2019-05-07T15:56:27.497Z,10.96
2019-05-07T15:59:02.155Z,10.93
2019-05-07T16:01:33.579Z,11.02
2019-05-07T16:04:18.828Z,11.00
2019-05-07T16:06:39.050Z,10.92
2019-05-07T16:09:12.912Z,10.84
2019-05-07T16:11:45.393Z,10.84
2019-05-07T16:14:26.874Z,10.78
2019-05-07T16:17:06.031Z,10.78
2019-05-07T16:19:37.698Z,10.75
2019-05-07T16:22:13.600Z,10.78
2019-05-07T16:24:45.476Z,10.89
2019-05-07T16:27:17.323Z,10.87
2019-05-07T16:29:49.115Z,10.89
2019-05-07T16:32:23.873Z,10.78
2019-05-07T16:34:54.677Z,10.72
2019-05-07T16:37:26.671Z,10.71
2019-05-07T16:39:58.533Z,10.66
2019-05-07T16:42:32.082Z,10.57
2019-05-07T16:45:03.687Z,10.53
2019-05-07T16:47:35.560Z,10.57
2019-05-07T16:50:07.664Z,10.53
2019-05-07T16:52:41.863Z,10.53
2019-05-07T16:55:13.051Z,10.43
2019-05-07T16:58:05.470Z,10.36
2019-05-07T17:00:42.265Z,10.26
2019-05-07T17:03:18.795Z,10.23
2019-05-07T17:05:52.270Z,10.22
2019-05-07T17:08:42.302Z,10.19
2019-05-07T17:11:14.277Z,10.14
2019-05-07T17:13:45.993Z,10.14
2019-05-07T17:16:18.515Z,10.10
2019-05-07T17:18:51.868Z,10.10
2019-05-07T17:21:23.678Z,10.09
2019-05-07T17:23:58.945Z,9.98
2019-05-07T17:26:30.476Z,9.98
2019-05-07T17:29:02.672Z,9.97
2019-05-07T17:31:34.841Z,9.80
2019-05-07T17:34:06.968Z,9.80
2019-05-07T17:36:38.950Z,9.78
2019-05-07T17:39:12.202Z,9.78
2019-05-07T17:41:44.003Z,9.72
2019-05-07T17:44:17.595Z,9.69
2019-05-07T17:46:49.071Z,9.72
2019-05-07T17:49:21.928Z,9.77
2019-05-07T17:51:53.728Z,9.67
2019-05-07T17:54:25.418Z,9.66
2019-05-07T17:56:57.468Z,9.57
2019-05-07T17:59:29.308Z,9.58
2019-05-07T18:02:37.667Z,9.54
2019-05-07T18:05:09.466Z,9.58
2019-05-07T18:07:42.026Z,9.54
2019-05-07T18:10:15.610Z,9.50
2019-05-07T18:12:47.588Z,9.53
2019-05-07T18:15:21.597Z,9.56
2019-05-07T18:18:00.901Z,9.51
2019-05-07T18:20:32.886Z,9.44
2019-05-07T18:23:06.898Z,9.46
2019-05-07T18:25:38.910Z,9.44
2019-05-07T18:28:12.289Z,9.45
2019-05-07T18:30:44.058Z,9.39
2019-05-07T18:33:27.687Z,9.46
2019-05-07T18:35:59.870Z,9.38
2019-05-07T18:38:32.940Z,9.43
2019-05-07T18:41:05.078Z,9.36
2019-05-07T18:43:37.206Z,9.32
2019-05-07T18:46:09.162Z,9.34
2019-05-07T18:48:42.625Z,9.35
2019-05-07T18:51:14.593Z,9.30
2019-05-07T18:53:46.410Z,9.28
2019-05-07T18:56:18.725Z,9.27
2019-05-07T18:58:52.041Z,9.26
2019-05-07T19:01:25.873Z,9.22
2019-05-07T19:03:58.323Z,9.25
2019-05-07T19:06:31.868Z,9.23
2019-05-07T19:09:05.328Z,9.17
2019-05-07T19:11:38.204Z,9.19
2019-05-07T19:14:10.547Z,9.19
2019-05-07T19:16:43.093Z,9.19
2019-05-07T19:19:15.103Z,9.17
2019-05-07T19:21:47.854Z,9.20
2019-05-07T19:24:22.247Z,9.10
2019-05-07T19:26:53.346Z,9.18
2019-05-07T19:29:25.234Z,9.22
2019-05-07T19:31:58.968Z,9.16
2019-05-07T19:34:32.457Z,9.19
2019-05-07T19:37:04.797Z,9.16
2019-05-07T19:39:36.770Z,9.15
2019-05-07T19:42:09.528Z,9.19
2019-05-07T19:44:42.345Z,9.08
2019-05-07T19:47:14.183Z,9.08
2019-05-07T19:49:45.874Z,9.04
2019-05-07T19:52:18.902Z,9.08
2019-05-07T19:55:00.811Z,9.07
2019-05-07T19:57:33.165Z,9.09
2019-05-07T20:00:07.407Z,9.07
2019-05-07T20:02:45.168Z,9.07
2019-05-07T20:05:17.999Z,9.03
2019-05-07T20:07:54.768Z,9.03
2019-05-07T20:10:33.153Z,8.96
2019-05-07T20:13:04.678Z,8.95
2019-05-07T20:15:37.880Z,9.03
2019-05-07T20:18:09.860Z,9.10
2019-05-07T20:20:42.546Z,9.06
2019-05-07T20:23:14.375Z,9.10
2019-05-07T20:25:46.571Z,9.10
2019-05-07T20:28:19.114Z,9.10
2019-05-07T20:30:52.958Z,9.11
2019-05-07T20:33:24.600Z,9.13
2019-05-07T20:35:56.577Z,9.12
2019-05-07T20:38:28.576Z,9.03
2019-05-07T20:41:02.098Z,9.03
2019-05-07T20:43:34.503Z,8.98
2019-05-07T20:46:06.360Z,8.99
2019-05-07T20:48:38.190Z,8.97
2019-05-07T20:51:12.212Z,8.99
2019-05-07T20:54:12.816Z,9.04
2019-05-07T20:56:51.929Z,8.97
2019-05-07T20:59:23.752Z,9.03
2019-05-07T21:01:55.452Z,8.96
2019-05-07T21:04:27.523Z,9.06
2019-05-07T21:06:59.040Z,9.09
2019-05-07T21:09:32.627Z,9.08
2019-05-07T21:12:03.811Z,9.09
2019-05-07T21:14:35.419Z,9.10
2019-05-07T21:17:06.954Z,9.09
2019-05-07T21:19:38.783Z,9.12
2019-05-07T21:22:12.859Z,9.15
2019-05-07T21:24:46.745Z,9.11
2019-05-07T21:27:17.194Z,9.08
2019-05-07T21:29:48.729Z,9.15
2019-05-07T21:32:22.921Z,9.14
2019-05-07T21:34:53.980Z,9.09
2019-05-07T21:37:25.646Z,9.14
2019-05-07T21:39:57.273Z,9.07
2019-05-07T21:42:39.382Z,9.11
2019-05-07T21:45:11.470Z,9.12
2019-05-07T21:47:44.813Z,9.13
2019-05-07T21:50:16.737Z,9.19
2019-05-07T21:52:54.105Z,9.19
2019-05-07T21:55:59.879Z,9.18
2019-05-07T21:58:39.412Z,9.14
2019-05-07T22:01:58.166Z,9.24
2019-05-07T22:04:30.752Z,9.20
2019-05-07T22:07:02.946Z,9.02
2019-05-07T22:09:34.660Z,9.11
2019-05-07T22:12:06.363Z,9.12
2019-05-07T22:14:38.679Z,9.13
2019-05-07T22:17:12.567Z,9.02
2019-05-07T22:19:44.848Z,8.86
2019-05-07T22:22:16.598Z,8.85
2019-05-07T22:24:50.370Z,8.82
2019-05-07T22:27:23.378Z,8.84
2019-05-07T22:29:55.023Z,8.66
2019-05-07T22:32:37.181Z,8.51
2019-05-07T22:35:16.647Z,8.46
2019-05-07T22:37:49.704Z,8.38
2019-05-07T22:40:28.560Z,8.27
2019-05-07T22:43:02.180Z,8.25
2019-05-07T22:45:33.832Z,8.25
2019-05-07T22:48:05.453Z,8.27
2019-05-07T22:50:36.906Z,8.34
2019-05-07T22:53:08.799Z,8.30
2019-05-07T22:55:41.888Z,8.33
2019-05-07T22:58:24.826Z,8.32
2019-05-07T23:01:02.447Z,8.26
2019-05-07T23:03:35.128Z,8.27
2019-05-07T23:06:12.573Z,8.34
2019-05-07T23:08:44.096Z,8.38
2019-05-07T23:11:15.687Z,8.40
2019-05-07T23:13:47.196Z,8.48
2019-05-07T23:16:18.757Z,8.57
2019-05-07T23:18:50.266Z,8.49
2019-05-07T23:21:24.552Z,8.40
2019-05-07T23:23:56.987Z,8.37
2019-05-07T23:26:28.459Z,8.33
2019-05-07T23:29:02.330Z,8.43
2019-05-07T23:31:33.301Z,8.38
2019-05-07T23:34:04.997Z,8.30
2019-05-07T23:36:36.559Z,8.11
2019-05-07T23:39:11.935Z,8.06
2019-05-07T23:41:55.249Z,8.01
2019-05-07T23:44:27.221Z,7.92
2019-05-07T23:46:58.857Z,7.91
2019-05-07T23:49:32.209Z,7.90
2019-05-07T23:52:03.978Z,7.96
2019-05-07T23:54:35.878Z,8.05
2019-05-07T23:57:09.775Z,8.07
2019-05-07T23:59:42.280Z,8.02
